createdAt,value
2019-05-05T00:00:53.065Z,5.721436
2019-05-05T00:01:53.302Z,5.741577
2019-05-05T00:02:53.261Z,5.711365
2019-05-05T00:03:32.264Z,5.741577
2019-05-05T00:04:43.315Z,5.751648
2019-05-05T00:06:32.262Z,5.741577
2019-05-05T00:07:32.586Z,5.721436
2019-05-05T00:08:43.579Z,5.711365
2019-05-05T00:09:42.876Z,5.711365
2019-05-05T00:10:43.197Z,5.681152
2019-05-05T00:11:42.448Z,5.640869
2019-05-05T00:12:42.852Z,5.600586
2019-05-05T00:15:43.012Z,5.560303
2019-05-05T00:16:42.433Z,5.570374
2019-05-05T00:17:42.855Z,5.560303
2019-05-05T00:18:32.596Z,5.53009
2019-05-05T00:19:33.837Z,5.509949
2019-05-05T00:20:32.422Z,5.489807
2019-05-05T00:21:32.352Z,5.479736
2019-05-05T00:22:43.564Z,5.449524
2019-05-05T00:23:42.958Z,5.429382
2019-05-05T00:24:42.262Z,5.419312
2019-05-05T00:25:53.254Z,5.389099
2019-05-05T00:26:53.241Z,5.39917
2019-05-05T00:27:52.589Z,5.419312
2019-05-05T00:30:03.314Z,5.39917
2019-05-05T00:31:02.605Z,5.419312
2019-05-05T00:32:02.844Z,5.449524
2019-05-05T00:34:13.329Z,5.509949
2019-05-05T00:35:12.851Z,5.53009
2019-05-05T00:36:12.384Z,5.540161
2019-05-05T00:37:23.448Z,5.540161
2019-05-05T00:38:22.791Z,5.53009
2019-05-05T00:40:33.190Z,5.479736
2019-05-05T00:41:32.558Z,5.459595
2019-05-05T00:42:43.586Z,5.449524
2019-05-05T00:43:42.976Z,5.429382
2019-05-05T00:44:42.500Z,5.419312
2019-05-05T00:45:53.590Z,5.379028
2019-05-05T00:46:52.979Z,5.358887
2019-05-05T00:47:52.323Z,5.379028
2019-05-05T00:49:03.381Z,5.389099
2019-05-05T00:50:53.632Z,5.429382
2019-05-05T00:51:52.682Z,5.459595
2019-05-05T00:52:52.970Z,5.509949
2019-05-05T00:53:53.287Z,5.53009
2019-05-05T00:54:53.535Z,5.53009
2019-05-05T00:55:52.782Z,5.53009
2019-05-05T00:56:52.394Z,5.53009
2019-05-05T00:58:03.196Z,5.459595
2019-05-05T00:59:02.546Z,5.429382
2019-05-05T01:00:02.975Z,5.39917
2019-05-05T01:02:13.021Z,5.358887
2019-05-05T01:03:13.261Z,5.328674
2019-05-05T01:04:12.564Z,5.328674
2019-05-05T01:05:23.299Z,5.308533
2019-05-05T01:06:23.555Z,5.298462
2019-05-05T01:07:22.787Z,5.248108
2019-05-05T01:08:22.960Z,5.217896
2019-05-05T01:10:33.258Z,5.238037
2019-05-05T01:11:33.527Z,5.238037
2019-05-05T01:12:32.824Z,5.248108
2019-05-05T01:13:33.102Z,5.217896
2019-05-05T01:14:32.321Z,5.248108
2019-05-05T01:15:32.634Z,5.26825
2019-05-05T01:16:43.627Z,5.26825
2019-05-05T01:17:43.014Z,5.248108
2019-05-05T01:18:43.008Z,5.248108
2019-05-05T01:19:43.407Z,5.27832
2019-05-05T01:20:42.827Z,5.298462
2019-05-05T01:22:53.287Z,5.328674
2019-05-05T01:23:52.683Z,5.308533
2019-05-05T01:24:53.242Z,5.308533
2019-05-05T01:26:53.160Z,5.308533
2019-05-05T01:27:52.582Z,5.348816
2019-05-05T01:29:52.509Z,5.419312
2019-05-05T01:31:03.581Z,5.419312
2019-05-05T01:32:03.081Z,5.429382
2019-05-05T01:33:03.500Z,5.459595
2019-05-05T01:34:02.761Z,5.459595
2019-05-05T01:36:02.656Z,5.53009
2019-05-05T01:37:02.905Z,5.509949
2019-05-05T01:38:53.199Z,5.540161
2019-05-05T01:44:53.229Z,5.580444
2019-05-05T01:45:52.717Z,5.580444
2019-05-05T01:46:53.042Z,5.570374
2019-05-05T01:47:52.587Z,5.600586
2019-05-05T01:48:52.974Z,5.600586
2019-05-05T01:49:52.462Z,5.610657
2019-05-05T01:51:53.187Z,5.630798
2019-05-05T01:52:53.526Z,5.640869
2019-05-05T01:53:42.264Z,5.65094
2019-05-05T01:54:42.540Z,5.630798
2019-05-05T01:56:53.231Z,5.681152
2019-05-05T01:57:52.393Z,5.711365
2019-05-05T01:58:52.739Z,5.751648
2019-05-05T02:01:03.005Z,5.812073
2019-05-05T02:02:02.292Z,5.832214
2019-05-05T02:03:02.483Z,5.892639
2019-05-05T02:05:02.523Z,5.912781
2019-05-05T02:08:13.184Z,5.942993
2019-05-05T02:09:13.682Z,5.912781
2019-05-05T02:10:12.996Z,5.912781
2019-05-05T02:11:13.518Z,5.862427
2019-05-05T02:12:13.634Z,5.852356
2019-05-05T02:13:14.030Z,5.791931
2019-05-05T02:14:13.500Z,5.721436
2019-05-05T02:15:12.735Z,5.681152
2019-05-05T02:16:13.019Z,5.600586
2019-05-05T02:17:12.275Z,5.610657
2019-05-05T02:18:23.349Z,5.560303
2019-05-05T02:19:22.776Z,5.509949
2019-05-05T02:21:33.175Z,5.459595
2019-05-05T02:22:33.590Z,5.459595
2019-05-05T02:23:33.066Z,5.449524
2019-05-05T02:24:33.253Z,5.389099
2019-05-05T02:25:32.535Z,5.348816
2019-05-05T02:26:43.482Z,5.308533
2019-05-05T02:27:42.766Z,5.26825
2019-05-05T02:29:42.625Z,5.248108
2019-05-05T02:31:42.583Z,5.167542
2019-05-05T02:32:42.459Z,5.167542
2019-05-05T02:33:53.744Z,5.127258
2019-05-05T02:34:53.094Z,5.086975
2019-05-05T02:35:52.478Z,5.117188
2019-05-05T02:36:53.592Z,5.1474
2019-05-05T02:37:53.106Z,5.177612
2019-05-05T02:39:31.641Z,5.197754
2019-05-05T02:40:12.777Z,5.167542
2019-05-05T02:41:12.516Z,5.097046
2019-05-05T02:42:11.886Z,5.066833
2019-05-05T02:43:12.047Z,5.02655
2019-05-05T02:44:12.445Z,4.986267
2019-05-05T02:45:12.848Z,4.986267
2019-05-05T02:47:12.453Z,4.956055
2019-05-05T02:48:11.912Z,4.996338
2019-05-05T02:49:23.011Z,5.036621
2019-05-05T02:51:22.502Z,5.056763
2019-05-05T02:52:21.774Z,5.056763
2019-05-05T02:53:22.806Z,5.036621
2019-05-05T02:54:22.824Z,5.056763
2019-05-05T02:56:12.600Z,5.016479
2019-05-05T02:58:01.825Z,5.036621
2019-05-05T02:59:12.739Z,5.036621
2019-05-05T03:00:02.464Z,5.036621
2019-05-05T03:01:02.810Z,5.036621
2019-05-05T03:02:02.148Z,5.056763
2019-05-05T03:03:02.459Z,5.056763
2019-05-05T03:04:01.693Z,5.066833
2019-05-05T03:08:02.751Z,5.127258
2019-05-05T03:08:52.252Z,5.1474
2019-05-05T03:09:52.487Z,5.167542
2019-05-05T03:10:51.692Z,5.197754
2019-05-05T03:12:02.596Z,5.26825
2019-05-05T03:13:02.837Z,5.348816
2019-05-05T03:14:02.064Z,5.379028
2019-05-05T03:14:51.651Z,5.389099
2019-05-05T03:15:52.757Z,5.429382
2019-05-05T03:16:52.139Z,5.459595
2019-05-05T03:17:51.900Z,5.509949
2019-05-05T03:18:52.494Z,5.509949
2019-05-05T03:20:41.609Z,5.560303
2019-05-05T03:21:52.596Z,5.580444
2019-05-05T03:22:51.983Z,5.610657
2019-05-05T03:25:02.540Z,5.65094
2019-05-05T03:26:01.953Z,5.711365
2019-05-05T03:28:02.468Z,5.791931
2019-05-05T03:29:02.764Z,5.812073
2019-05-05T03:29:51.518Z,5.852356
2019-05-05T03:31:32.019Z,5.862427
2019-05-05T03:33:21.800Z,5.892639
2019-05-05T03:34:32.310Z,5.892639
2019-05-05T03:35:32.638Z,5.892639
2019-05-05T03:36:31.893Z,5.892639
2019-05-05T03:37:32.306Z,5.852356
2019-05-05T03:38:22.754Z,5.852356
2019-05-05T03:39:12.481Z,5.822144
2019-05-05T03:40:12.788Z,5.812073
2019-05-05T03:42:01.653Z,5.812073
2019-05-05T03:43:12.574Z,5.832214
2019-05-05T03:44:12.105Z,5.832214
2019-05-05T03:46:11.726Z,5.822144
2019-05-05T03:47:12.017Z,5.791931
2019-05-05T03:48:02.592Z,5.761719
2019-05-05T03:49:02.790Z,5.78186
2019-05-05T03:50:02.254Z,5.791931
2019-05-05T03:51:15.294Z,5.78186
2019-05-05T03:52:02.791Z,5.791931
2019-05-05T03:53:02.921Z,5.761719
2019-05-05T03:54:02.227Z,5.78186
2019-05-05T03:55:01.692Z,5.78186
2019-05-05T03:56:01.815Z,5.761719
2019-05-05T03:56:52.437Z,5.751648
2019-05-05T03:57:51.823Z,5.741577
2019-05-05T03:59:02.882Z,5.711365
2019-05-05T04:00:02.170Z,5.640869
2019-05-05T04:01:02.345Z,5.640869
2019-05-05T04:02:01.904Z,5.640869
2019-05-05T04:03:12.767Z,5.65094
2019-05-05T04:04:12.030Z,5.671082
2019-05-05T04:07:11.848Z,5.640869
2019-05-05T04:09:22.194Z,5.640869
2019-05-05T04:10:22.479Z,5.630798
2019-05-05T04:11:21.761Z,5.630798
2019-05-05T04:12:32.579Z,5.640869
2019-05-05T04:13:22.232Z,5.610657
2019-05-05T04:14:22.789Z,5.600586
2019-05-05T04:15:12.120Z,5.600586
2019-05-05T04:16:11.549Z,5.65094
2019-05-05T04:17:22.530Z,5.671082
2019-05-05T04:18:21.896Z,5.681152
2019-05-05T04:20:11.966Z,5.65094
2019-05-05T04:22:11.487Z,5.630798
2019-05-05T04:23:22.536Z,5.630798
2019-05-05T04:24:21.884Z,5.630798
2019-05-05T04:25:32.870Z,5.630798
2019-05-05T04:27:32.287Z,5.580444
2019-05-05T04:28:32.561Z,5.580444
2019-05-05T04:30:21.529Z,5.580444
2019-05-05T04:31:32.565Z,5.600586
2019-05-05T04:32:32.824Z,5.610657
2019-05-05T04:33:32.119Z,5.630798
2019-05-05T04:35:42.371Z,5.610657
2019-05-05T04:36:32.094Z,5.630798
2019-05-05T04:37:21.841Z,5.65094
2019-05-05T04:38:32.863Z,5.711365
2019-05-05T04:39:32.180Z,5.741577
2019-05-05T04:40:32.465Z,5.751648
2019-05-05T04:41:31.797Z,5.761719
2019-05-05T04:42:31.682Z,5.78186
2019-05-05T04:43:31.918Z,5.812073
2019-05-05T04:44:32.285Z,5.812073
2019-05-05T04:46:42.343Z,5.812073
2019-05-05T04:47:41.597Z,5.78186
2019-05-05T04:48:52.491Z,5.791931
2019-05-05T04:49:51.865Z,5.822144
2019-05-05T04:51:02.800Z,5.852356
2019-05-05T04:52:02.132Z,5.852356
2019-05-05T04:54:12.181Z,5.862427
2019-05-05T04:55:01.799Z,5.90271
2019-05-05T04:57:12.888Z,5.912781
2019-05-05T04:59:12.390Z,6.003418
2019-05-05T05:00:11.608Z,6.063843
2019-05-05T05:02:12.436Z,6.114197
2019-05-05T05:05:12.471Z,6.094055
2019-05-05T05:06:12.599Z,6.094055
2019-05-05T05:08:01.826Z,6.124268
2019-05-05T05:09:12.610Z,6.174622
2019-05-05T05:10:11.777Z,6.214905
2019-05-05T05:11:22.642Z,6.265259
2019-05-05T05:13:22.392Z,6.365967
2019-05-05T05:14:22.576Z,6.40625
2019-05-05T05:15:21.837Z,6.436462
2019-05-05T05:16:33.737Z,6.506958
2019-05-05T05:18:32.330Z,6.577454
2019-05-05T05:19:31.488Z,6.607666
2019-05-05T05:20:42.339Z,6.637878
2019-05-05T05:21:41.572Z,6.698303
2019-05-05T05:22:52.462Z,6.708374
2019-05-05T05:23:51.631Z,6.728516
2019-05-05T05:24:51.905Z,6.738586
2019-05-05T05:26:02.826Z,6.78894
2019-05-05T05:27:02.822Z,6.799011
2019-05-05T05:28:02.022Z,6.849365
2019-05-05T05:29:12.889Z,6.879578
2019-05-05T05:31:01.821Z,6.940002
2019-05-05T05:32:13.564Z,6.950073
2019-05-05T05:33:12.721Z,6.980286
2019-05-05T05:34:12.736Z,7.020569
2019-05-05T05:35:11.963Z,7.070923
2019-05-05T05:36:22.781Z,7.121277
2019-05-05T05:37:21.963Z,7.151489
2019-05-05T05:38:22.171Z,7.16156
2019-05-05T05:40:32.167Z,7.232056
2019-05-05T05:42:41.948Z,7.302551
2019-05-05T05:43:42.016Z,7.322693
2019-05-05T05:45:52.168Z,7.423401
2019-05-05T05:48:02.095Z,7.483826
2019-05-05T05:50:12.273Z,7.554321
2019-05-05T05:52:22.264Z,7.644958
2019-05-05T05:53:32.811Z,7.685242
2019-05-05T05:54:32.016Z,7.715454
2019-05-05T05:55:42.734Z,7.765808
2019-05-05T05:56:42.716Z,7.765808
2019-05-05T05:57:41.857Z,7.78595
2019-05-05T05:59:52.840Z,7.826233
2019-05-05T06:00:51.944Z,7.866516
2019-05-05T06:02:09.643Z,7.896729
2019-05-05T06:03:01.871Z,7.91687
2019-05-05T06:04:12.582Z,7.967224
2019-05-05T06:05:12.705Z,7.967224
2019-05-05T06:06:11.842Z,7.997437
2019-05-05T06:07:22.593Z,8.03772
2019-05-05T06:08:12.038Z,8.047791
2019-05-05T06:09:12.863Z,8.098145
2019-05-05T06:10:22.045Z,8.108215
2019-05-05T06:11:11.726Z,8.158569
2019-05-05T06:12:22.586Z,8.198853
2019-05-05T06:14:22.794Z,8.158569
2019-05-05T06:17:11.555Z,8.118286
2019-05-05T06:18:22.275Z,8.148499
2019-05-05T06:20:32.305Z,8.158569
2019-05-05T06:21:31.597Z,8.178711
2019-05-05T06:22:42.641Z,8.218994
2019-05-05T06:23:41.599Z,8.178711
2019-05-05T06:24:41.835Z,8.148499
2019-05-05T06:25:52.723Z,8.118286
2019-05-05T06:26:52.589Z,8.148499
2019-05-05T06:27:51.802Z,8.158569
2019-05-05T06:28:52.068Z,8.178711
2019-05-05T06:29:52.169Z,8.188782
2019-05-05T06:30:52.458Z,8.178711
2019-05-05T06:31:51.746Z,8.178711
2019-05-05T06:33:02.767Z,8.178711
2019-05-05T06:34:01.732Z,8.188782
2019-05-05T06:35:51.563Z,8.158569
2019-05-05T06:37:02.244Z,8.148499
2019-05-05T06:38:02.727Z,8.108215
2019-05-05T06:39:02.671Z,8.078003
2019-05-05T06:40:01.870Z,8.067932
2019-05-05T06:41:12.758Z,8.067932
2019-05-05T06:42:11.776Z,8.078003
2019-05-05T06:43:11.931Z,8.108215
2019-05-05T06:44:22.783Z,8.108215
2019-05-05T06:45:21.887Z,8.118286
2019-05-05T06:47:11.673Z,8.188782
2019-05-05T06:48:11.637Z,8.188782
2019-05-05T06:49:11.674Z,8.188782
2019-05-05T06:50:22.422Z,8.218994
2019-05-05T06:51:22.510Z,8.188782
2019-05-05T06:52:22.905Z,8.188782
2019-05-05T06:53:22.005Z,8.148499
2019-05-05T06:54:32.779Z,8.178711
2019-05-05T06:55:32.021Z,8.188782
2019-05-05T06:56:32.223Z,8.188782
2019-05-05T06:57:32.436Z,8.188782
2019-05-05T06:58:32.682Z,8.198853
2019-05-05T06:59:32.773Z,8.218994
2019-05-05T07:00:22.275Z,8.229065
2019-05-05T07:02:32.317Z,8.229065
2019-05-05T07:03:31.554Z,8.229065
2019-05-05T07:04:42.370Z,8.198853
2019-05-05T07:05:41.532Z,8.198853
2019-05-05T07:06:51.500Z,8.188782
2019-05-05T07:07:41.525Z,8.188782
2019-05-05T07:08:52.439Z,8.188782
2019-05-05T07:10:52.845Z,8.229065
2019-05-05T07:11:52.016Z,8.229065
2019-05-05T07:13:02.959Z,8.218994
2019-05-05T07:14:51.668Z,8.229065
2019-05-05T07:16:02.573Z,8.259277
2019-05-05T07:17:02.898Z,8.329773
2019-05-05T07:19:02.295Z,8.400269
2019-05-05T07:19:52.143Z,8.410339
2019-05-05T07:21:51.688Z,8.470764
2019-05-05T07:22:59.450Z,8.450623
2019-05-05T07:23:51.709Z,8.440552
2019-05-05T07:25:02.584Z,8.440552
2019-05-05T07:26:01.939Z,8.440552
2019-05-05T07:28:12.512Z,8.440552
2019-05-05T07:30:02.595Z,8.440552
2019-05-05T07:31:02.110Z,8.450623
2019-05-05T07:32:01.628Z,8.440552
2019-05-05T07:33:12.753Z,8.410339
2019-05-05T07:35:12.341Z,8.440552
2019-05-05T07:35:56.552Z,8.430481
2019-05-05T07:36:42.242Z,8.430481
2019-05-05T07:37:41.538Z,8.380127
2019-05-05T07:38:52.614Z,8.380127
2019-05-05T07:39:51.909Z,8.400269
2019-05-05T07:42:02.528Z,8.450623
2019-05-05T07:43:02.436Z,8.470764
2019-05-05T07:44:02.740Z,8.500977
2019-05-05T07:45:01.969Z,8.551331
2019-05-05T07:47:01.573Z,8.611755
2019-05-05T07:49:01.789Z,8.631897
2019-05-05T07:50:02.090Z,8.682251
2019-05-05T07:51:02.736Z,8.682251
2019-05-05T07:52:12.847Z,8.712463
2019-05-05T07:53:12.128Z,8.742676
2019-05-05T07:54:53.021Z,8.803101
2019-05-05T07:55:32.323Z,8.79303
2019-05-05T07:56:32.277Z,8.813171
2019-05-05T07:57:21.847Z,8.833313
2019-05-05T07:58:22.201Z,8.863525
2019-05-05T07:59:21.593Z,8.893738
2019-05-05T08:00:21.960Z,8.913879
2019-05-05T08:02:21.599Z,8.954163
2019-05-05T08:03:21.553Z,8.984375
2019-05-05T08:04:32.654Z,8.984375
2019-05-05T08:06:21.640Z,9.014587
2019-05-05T08:07:21.958Z,9.014587
2019-05-05T08:08:22.355Z,8.994446
2019-05-05T08:09:22.470Z,9.014587
2019-05-05T08:10:22.042Z,8.994446
2019-05-05T08:11:21.808Z,9.014587
2019-05-05T08:12:11.572Z,8.994446
2019-05-05T08:13:11.875Z,9.054871
2019-05-05T08:14:12.334Z,9.075012
2019-05-05T08:15:12.653Z,9.125366
2019-05-05T08:16:12.091Z,9.125366
2019-05-05T08:18:22.275Z,9.226074
2019-05-05T08:19:22.243Z,9.256287
2019-05-05T08:20:21.693Z,9.286499
2019-05-05T08:21:32.603Z,9.346924
2019-05-05T08:22:31.933Z,9.356995
2019-05-05T08:24:31.801Z,9.42749
2019-05-05T08:25:43.015Z,9.477844
2019-05-05T08:27:23.049Z,9.568481
2019-05-05T08:29:11.673Z,9.67926
2019-05-05T08:30:11.968Z,9.739685
2019-05-05T08:31:22.849Z,9.810181
2019-05-05T08:32:11.515Z,9.870605
2019-05-05T08:33:11.852Z,9.93103
2019-05-05T08:34:12.218Z,10.011597
2019-05-05T08:35:12.670Z,10.082092
2019-05-05T08:36:02.404Z,10.122375
2019-05-05T08:36:51.776Z,10.172729
2019-05-05T08:37:52.072Z,10.253296
2019-05-05T08:38:52.568Z,10.323792
2019-05-05T08:39:51.963Z,10.343933
2019-05-05T08:40:52.200Z,10.384216
2019-05-05T08:41:51.705Z,10.4245
2019-05-05T08:43:41.995Z,10.484924
2019-05-05T08:45:42.223Z,10.55542
2019-05-05T08:46:42.564Z,10.605774
2019-05-05T08:48:42.585Z,10.696411
2019-05-05T08:51:31.926Z,10.67627
2019-05-05T08:52:32.193Z,10.726624
2019-05-05T08:53:42.318Z,10.80719
2019-05-05T08:54:32.189Z,10.837402
2019-05-05T08:55:31.933Z,10.887756
2019-05-05T08:56:32.324Z,10.93811
2019-05-05T08:58:12.670Z,10.907898
2019-05-05T08:59:12.048Z,10.847473
2019-05-05T09:01:12.570Z,10.67627
2019-05-05T09:02:12.718Z,10.595703
2019-05-05T09:05:02.168Z,10.625916
2019-05-05T09:07:02.777Z,10.817261
2019-05-05T09:11:02.428Z,11.099243
2019-05-05T09:11:52.090Z,11.139526
2019-05-05T09:13:42.457Z,11.290588
2019-05-05T09:14:42.756Z,11.361084
2019-05-05T09:15:42.157Z,11.320801
2019-05-05T09:16:42.595Z,11.492004
2019-05-05T09:18:42.272Z,11.401367
2019-05-05T09:19:42.680Z,11.512146
2019-05-05T09:21:32.384Z,11.733704
2019-05-05T09:22:32.734Z,11.733704
2019-05-05T09:23:21.893Z,11.864624
2019-05-05T09:24:22.890Z,12.015686
2019-05-05T09:25:11.510Z,12.126465
2019-05-05T09:26:11.756Z,12.237244
2019-05-05T09:27:22.502Z,12.19696
2019-05-05T09:28:21.813Z,12.307739
2019-05-05T09:29:32.659Z,12.458801
2019-05-05T09:30:31.992Z,12.337952
2019-05-05T09:31:42.915Z,12.237244
2019-05-05T09:32:22.121Z,12.227173
2019-05-05T09:35:22.006Z,12.680359
2019-05-05T09:36:32.843Z,12.710571
2019-05-05T09:37:31.970Z,12.589722
2019-05-05T09:38:42.902Z,12.559509
2019-05-05T09:40:31.585Z,12.468872
2019-05-05T09:41:42.507Z,12.720642
2019-05-05T09:42:32.131Z,12.82135
2019-05-05T09:43:32.361Z,13.002625
2019-05-05T09:44:32.561Z,13.042908
2019-05-05T09:45:31.736Z,13.032837
2019-05-05T09:46:42.646Z,12.952271
2019-05-05T09:47:42.873Z,12.962341
2019-05-05T09:48:41.919Z,12.891846
2019-05-05T09:49:52.805Z,12.781067
2019-05-05T09:50:51.989Z,12.922058
2019-05-05T09:52:02.851Z,13.234253
2019-05-05T09:53:02.119Z,13.44574
2019-05-05T09:54:11.771Z,13.405457
2019-05-05T09:55:01.552Z,13.284607
2019-05-05T09:56:12.478Z,13.123474
2019-05-05T09:57:02.137Z,13.032837
2019-05-05T09:58:02.492Z,12.831421
2019-05-05T09:59:01.737Z,12.680359
2019-05-05T10:00:02.694Z,12.499084
2019-05-05T10:01:01.924Z,12.337952
2019-05-05T10:02:02.205Z,12.166748
2019-05-05T10:03:12.339Z,12.015686
2019-05-05T10:04:22.280Z,11.763916
2019-05-05T10:05:32.193Z,11.542358
2019-05-05T10:06:45.422Z,11.280518
2019-05-05T10:07:52.434Z,11.089172
2019-05-05T10:08:51.827Z,10.93811
2019-05-05T10:10:02.664Z,10.776978
2019-05-05T10:11:01.948Z,10.67627
2019-05-05T10:13:12.492Z,10.595703
2019-05-05T10:14:12.275Z,10.545349
2019-05-05T10:15:11.625Z,10.505066
2019-05-05T10:16:21.621Z,10.474854
2019-05-05T10:18:31.796Z,10.414429
2019-05-05T10:19:22.326Z,10.404358
2019-05-05T10:20:32.339Z,10.414429
2019-05-05T10:21:42.213Z,10.414429
2019-05-05T10:22:52.285Z,10.414429
2019-05-05T10:24:02.583Z,10.444641
2019-05-05T10:25:02.094Z,10.414429
2019-05-05T10:26:12.828Z,10.454712
2019-05-05T10:28:22.015Z,10.545349
2019-05-05T10:29:11.584Z,10.666199
2019-05-05T10:31:32.581Z,11.05896
2019-05-05T10:34:42.033Z,11.753845
2019-05-05T10:35:52.154Z,12.045898
2019-05-05T10:37:02.101Z,12.388306
2019-05-05T10:37:52.365Z,12.599792
2019-05-05T10:39:02.353Z,12.82135
2019-05-05T10:40:01.516Z,12.901917
2019-05-05T10:41:21.986Z,12.952271
2019-05-05T10:42:12.370Z,12.952271
2019-05-05T10:43:12.795Z,12.901917
2019-05-05T10:44:12.187Z,12.861633
2019-05-05T10:45:22.220Z,12.861633
2019-05-05T10:46:32.067Z,12.781067
2019-05-05T10:47:42.064Z,12.750854
2019-05-05T10:48:51.899Z,12.740784
2019-05-05T10:50:02.898Z,12.720642
2019-05-05T10:51:02.082Z,12.680359
2019-05-05T10:52:12.087Z,12.559509
2019-05-05T10:54:41.455Z,12.337952
2019-05-05T10:55:42.852Z,12.207031
2019-05-05T10:57:52.050Z,12.015686
2019-05-05T10:59:01.940Z,11.914978
2019-05-05T11:00:13.071Z,11.834412
2019-05-05T11:01:21.675Z,11.794128
2019-05-05T11:05:01.949Z,11.622925
2019-05-05T11:06:11.636Z,11.612854
2019-05-05T11:07:32.123Z,11.512146
2019-05-05T11:08:42.961Z,11.471863
2019-05-05T11:09:42.227Z,11.461792
2019-05-05T11:12:51.626Z,11.421509
2019-05-05T11:14:11.954Z,11.401367
2019-05-05T11:15:22.704Z,11.320801
2019-05-05T11:17:22.063Z,11.250305
2019-05-05T11:18:32.214Z,11.351013
2019-05-05T11:19:42.027Z,12.378235
2019-05-05T11:20:52.968Z,13.042908
2019-05-05T11:21:52.043Z,13.103333
2019-05-05T11:23:02.753Z,13.707581
2019-05-05T11:23:51.945Z,15.067139
2019-05-05T11:25:03.009Z,16.668396
2019-05-05T11:27:02.346Z,18.873901
2019-05-05T11:28:01.485Z,19.286804
2019-05-05T11:29:22.072Z,20.142822
2019-05-05T11:30:32.006Z,21.159973
2019-05-05T11:32:42.099Z,21.653442
2019-05-05T11:33:52.125Z,22.026062
2019-05-05T11:35:02.838Z,21.834717
2019-05-05T11:36:02.379Z,21.290894
2019-05-05T11:37:01.678Z,20.61615
2019-05-05T11:38:22.647Z,19.588928
2019-05-05T11:40:11.522Z,18.501282
2019-05-05T11:41:22.209Z,17.917175
2019-05-05T11:42:32.381Z,17.544556
2019-05-05T11:43:31.778Z,17.252502
2019-05-05T11:44:31.560Z,16.980591
2019-05-05T11:45:52.306Z,16.557617
2019-05-05T11:46:52.552Z,15.973511
2019-05-05T11:47:51.747Z,15.741882
2019-05-05T11:49:02.782Z,15.409546
2019-05-05T11:50:02.219Z,15.187988
2019-05-05T11:51:12.847Z,15.067139
2019-05-05T11:53:22.974Z,14.765015
2019-05-05T11:54:22.381Z,14.624023
2019-05-05T11:55:22.898Z,14.503174
2019-05-05T11:56:12.296Z,14.45282
2019-05-05T11:57:22.030Z,14.362183
2019-05-05T11:58:31.939Z,14.241333
2019-05-05T11:59:21.575Z,14.039917
2019-05-05T12:00:32.681Z,13.94928
2019-05-05T12:01:22.194Z,13.888855
2019-05-05T12:02:22.412Z,13.868713
2019-05-05T12:04:21.790Z,13.768005
2019-05-05T12:05:42.200Z,13.747864
2019-05-05T12:06:42.160Z,13.747864
2019-05-05T12:07:52.113Z,13.69751
2019-05-05T12:08:43.501Z,13.727722
2019-05-05T12:11:12.892Z,13.707581
2019-05-05T12:12:12.223Z,13.657227
2019-05-05T12:15:42.681Z,13.596802
2019-05-05T12:16:41.895Z,13.616943
2019-05-05T12:17:52.639Z,13.627014
2019-05-05T12:18:51.960Z,13.687439
2019-05-05T12:20:02.616Z,13.69751
2019-05-05T12:21:02.845Z,13.69751
2019-05-05T12:24:22.664Z,13.727722
2019-05-05T12:25:25.914Z,13.667297
2019-05-05T12:26:32.685Z,13.687439
2019-05-05T12:27:31.765Z,13.627014
2019-05-05T12:28:52.381Z,13.566589
2019-05-05T12:29:52.510Z,13.506165
2019-05-05T12:30:53.708Z,13.516235
2019-05-05T12:33:02.755Z,13.44574
2019-05-05T12:34:01.916Z,13.405457
2019-05-05T12:35:12.797Z,13.375244
2019-05-05T12:36:12.880Z,13.334961
2019-05-05T12:37:03.258Z,13.32489
2019-05-05T12:39:12.117Z,13.334961
2019-05-05T12:40:22.732Z,13.32489
2019-05-05T12:41:21.900Z,13.334961
2019-05-05T12:42:22.094Z,13.355103
2019-05-05T12:43:31.889Z,13.375244
2019-05-05T12:44:31.961Z,13.375244
2019-05-05T12:45:41.944Z,13.355103
2019-05-05T12:46:42.146Z,13.375244
2019-05-05T12:49:02.736Z,13.32489
2019-05-05T12:51:12.591Z,13.254395
2019-05-05T12:52:11.840Z,13.204041
2019-05-05T12:53:21.789Z,13.103333
2019-05-05T12:54:22.507Z,13.032837
2019-05-05T12:55:22.683Z,12.922058
2019-05-05T12:56:21.801Z,12.851562
2019-05-05T12:57:22.112Z,12.720642
2019-05-05T12:58:11.879Z,12.650146
2019-05-05T12:59:22.767Z,12.599792
2019-05-05T13:01:22.376Z,12.489014
2019-05-05T13:02:21.546Z,12.468872
2019-05-05T13:03:32.545Z,12.468872
2019-05-05T13:04:31.832Z,12.44873
2019-05-05T13:05:42.665Z,12.408447
2019-05-05T13:06:42.832Z,12.378235
2019-05-05T13:07:42.157Z,12.378235
2019-05-05T13:10:02.786Z,12.408447
2019-05-05T13:11:02.049Z,12.44873
2019-05-05T13:12:12.868Z,12.458801
2019-05-05T13:13:12.132Z,12.458801
2019-05-05T13:15:22.742Z,12.468872
2019-05-05T13:16:23.036Z,12.44873
2019-05-05T13:17:31.867Z,12.458801
2019-05-05T13:18:31.840Z,12.458801
2019-05-05T13:19:41.733Z,12.499084
2019-05-05T13:21:02.236Z,12.599792
2019-05-05T13:22:01.616Z,12.650146
2019-05-05T13:23:12.488Z,12.7005
2019-05-05T13:24:11.717Z,12.710571
2019-05-05T13:25:11.866Z,12.680359
2019-05-05T13:26:21.687Z,12.710571
2019-05-05T13:27:31.895Z,12.720642
2019-05-05T13:28:52.213Z,12.720642
2019-05-05T13:30:02.095Z,12.750854
2019-05-05T13:31:11.832Z,12.750854
2019-05-05T13:32:22.594Z,12.720642
2019-05-05T13:33:22.580Z,12.710571
2019-05-05T13:34:11.526Z,12.7005
2019-05-05T13:35:32.011Z,12.680359
2019-05-05T13:36:41.993Z,12.720642
2019-05-05T13:37:52.916Z,12.720642
2019-05-05T13:38:52.651Z,12.710571
2019-05-05T13:40:02.441Z,12.720642
2019-05-05T13:42:22.271Z,12.720642
2019-05-05T13:43:32.196Z,12.781067
2019-05-05T13:44:31.522Z,12.781067
2019-05-05T13:45:52.073Z,12.781067
2019-05-05T13:47:02.094Z,12.781067
2019-05-05T13:48:11.990Z,12.781067
2019-05-05T13:49:21.987Z,12.781067
2019-05-05T13:50:32.096Z,12.720642
2019-05-05T13:51:42.898Z,12.710571
2019-05-05T13:52:42.201Z,12.720642
2019-05-05T13:53:51.919Z,12.740784
2019-05-05T13:55:52.456Z,12.720642
2019-05-05T13:57:52.868Z,12.750854
2019-05-05T13:58:41.619Z,12.750854
2019-05-05T13:59:52.537Z,12.710571
2019-05-05T14:00:52.634Z,12.720642
2019-05-05T14:01:51.986Z,12.680359
2019-05-05T14:03:01.762Z,12.7005
2019-05-05T14:06:02.647Z,12.650146
2019-05-05T14:07:01.859Z,12.670288
2019-05-05T14:08:12.635Z,12.710571
2019-05-05T14:09:11.712Z,12.720642
2019-05-05T14:10:21.585Z,12.720642
2019-05-05T14:11:42.466Z,12.720642
2019-05-05T14:12:41.767Z,12.720642
2019-05-05T14:15:01.881Z,12.740784
2019-05-05T14:16:12.274Z,12.750854
2019-05-05T14:19:42.482Z,12.7005
2019-05-05T14:20:41.716Z,12.680359
2019-05-05T14:22:02.328Z,12.519226
2019-05-05T14:23:12.934Z,12.408447
2019-05-05T14:24:12.312Z,12.368164
2019-05-05T14:25:22.210Z,12.307739
2019-05-05T14:26:32.937Z,12.287598
2019-05-05T14:27:21.867Z,12.277527
2019-05-05T14:28:32.032Z,12.277527
2019-05-05T14:30:52.227Z,12.227173
2019-05-05T14:33:01.849Z,12.207031
2019-05-05T14:34:12.053Z,12.19696
2019-05-05T14:35:12.382Z,12.156677
2019-05-05T14:36:22.524Z,12.156677
2019-05-05T14:37:22.913Z,12.166748
2019-05-05T14:39:12.822Z,12.227173
2019-05-05T14:42:12.724Z,12.31781